Time;durP1;ratioP1;P1;durP2;ratioP2;P2;SDS_P1;SDS_P2;PMS_P1;PMS_P2;Temp;Humidity;BMP_temperature;BMP_pressure;BME280_temperature;BME280_humidity;BME280_pressure;Samples;Min_cycle;Max_cycle;Signal;HPM_P1;HPM_P2
2023/09/01 00:01:10;;;;;;;5.28;3.28;;;;;;;16.85;100.00;96666.06;5113180;28;20217;-56
2023/09/01 00:03:36;;;;;;;5.85;3.42;;;;;;;16.83;100.00;96660.88;5113496;28;20532;-57
2023/09/01 00:06:05;;;;;;;3.65;3.00;;;;;;;16.80;100.00;96665.75;5113055;28;20303;-57
2023/09/01 00:08:32;;;;;;;4.40;3.28;;;;;;;16.74;100.00;96662.00;5112180;28;20193;-56
2023/09/01 00:10:58;;;;;;;3.15;2.90;;;;;;;16.67;100.00;96650.38;5113389;28;20193;-55
2023/09/01 00:13:25;;;;;;;3.10;2.90;;;;;;;16.65;100.00;96652.38;5113343;28;20193;-57
2023/09/01 00:15:53;;;;;;;2.90;2.70;;;;;;;16.65;100.00;96647.03;5113598;28;20205;-56
2023/09/01 00:18:19;;;;;;;4.07;2.90;;;;;;;16.70;100.00;96643.84;5114083;28;20220;-56
2023/09/01 00:20:46;;;;;;;3.00;2.80;;;;;;;16.69;100.00;96658.19;5127004;28;20213;-56
2023/09/01 00:23:12;;;;;;;2.92;2.67;;;;;;;16.67;100.00;96650.38;5138585;28;20245;-59
2023/09/01 00:25:39;;;;;;;4.28;2.80;;;;;;;16.64;100.00;96645.41;5126338;28;20569;-56
2023/09/01 00:28:07;;;;;;;3.22;2.55;;;;;;;16.64;100.00;96649.91;5134738;28;20700;-55
2023/09/01 00:30:33;;;;;;;2.88;2.67;;;;;;;16.62;100.00;96650.06;5126109;28;20205;-56
2023/09/01 00:33:01;;;;;;;3.08;2.85;;;;;;;16.63;100.00;96653.56;5117550;28;20205;-55
2023/09/01 00:35:27;;;;;;;3.08;2.63;;;;;;;16.63;100.00;96648.22;5114555;28;20296;-57
2023/09/01 00:37:54;;;;;;;3.05;2.85;;;;;;;16.60;100.00;96646.75;5113283;28;20542;-57
2023/09/01 00:40:20;;;;;;;3.60;2.88;;;;;;;16.58;100.00;96646.09;5114143;28;20281;-55
2023/09/01 00:42:48;;;;;;;3.05;2.85;;;;;;;16.60;100.00;96644.09;5112672;28;20220;-56
2023/09/01 00:45:15;;;;;;;3.33;2.92;;;;;;;16.55;100.00;96638.41;5112861;28;20293;-56
2023/09/01 00:47:41;;;;;;;2.80;2.60;;;;;;;16.55;100.00;96638.41;5112502;28;20201;-56
2023/09/01 00:50:10;;;;;;;2.58;2.47;;;;;;;16.55;100.00;96648.25;5112214;28;20233;-56
2023/09/01 00:52:36;;;;;;;2.95;2.75;;;;;;;16.59;100.00;96652.28;5113235;28;20201;-56
2023/09/01 00:55:05;;;;;;;2.97;2.65;;;;;;;16.58;100.00;96647.97;5112748;28;20223;-56
2023/09/01 00:57:32;;;;;;;2.92;2.50;;;;;;;16.56;100.00;96648.13;5113496;28;20594;-57
2023/09/01 00:59:58;;;;;;;4.25;2.90;;;;;;;16.57;100.00;96647.13;5113578;28;20201;-58
2023/09/01 01:02:26;;;;;;;3.20;2.60;;;;;;;16.60;100.00;96644.09;5113612;28;20213;-55
2023/09/01 01:04:52;;;;;;;3.28;2.78;;;;;;;16.57;100.00;96636.44;5114003;28;20205;-56
2023/09/01 01:07:25;;;;;;;2.78;2.60;;;;;;;16.48;100.00;96633.97;5113580;28;20204;-55
2023/09/01 01:10:02;;;;;;;4.07;2.80;;;;;;;16.43;100.00;96632.69;5113891;28;20553;-57
2023/09/01 01:12:32;;;;;;;3.60;2.97;;;;;;;16.41;100.00;96634.69;5113752;28;20284;-55
2023/09/01 01:14:59;;;;;;;3.20;3.00;;;;;;;16.37;100.00;96643.22;5113891;28;20194;-56
2023/09/01 01:17:26;;;;;;;4.07;2.95;;;;;;;16.42;100.00;96640.88;5112175;28;20208;-56
2023/09/01 01:19:55;;;;;;;3.33;3.03;;;;;;;16.34;100.00;96636.44;5112348;28;20619;-55
2023/09/01 01:22:29;;;;;;;3.85;2.80;;;;;;;16.30;100.00;96636.94;5111441;28;20680;-55
2023/09/01 01:24:57;;;;;;;4.03;2.95;;;;;;;16.29;100.00;96640.66;5110665;28;20192;-56
2023/09/01 01:27:24;;;;;;;3.20;2.78;;;;;;;16.28;100.00;96639.81;5111159;28;20236;-57
2023/09/01 01:29:50;;;;;;;5.50;3.20;;;;;;;16.31;100.00;96631.44;5111379;28;20205;-56
2023/09/01 01:32:17;;;;;;;3.67;3.17;;;;;;;16.32;100.00;96640.28;5111815;28;20193;-55
2023/09/01 01:34:50;;;;;;;4.70;3.28;;;;;;;16.30;100.00;96634.28;5110743;28;20197;-57
2023/09/01 01:37:22;;;;;;;2.95;2.75;;;;;;;16.31;100.00;96638.63;5111407;28;20197;-56
2023/09/01 01:39:50;;;;;;;3.22;2.95;;;;;;;16.43;100.00;96639.88;5110991;28;20193;-56
2023/09/01 01:42:19;;;;;;;6.38;3.03;;;;;;;16.41;100.00;96639.19;5111218;28;20552;-56
2023/09/01 01:44:48;;;;;;;3.15;2.80;;;;;;;16.41;100.00;96639.19;5111545;28;20265;-55
2023/09/01 01:47:15;;;;;;;2.97;2.40;;;;;;;16.44;100.00;96631.66;5111498;28;20212;-56
2023/09/01 01:49:42;;;;;;;2.80;2.60;;;;;;;16.39;100.00;96636.72;5111003;28;20196;-56
2023/09/01 01:52:08;;;;;;;3.00;2.80;;;;;;;16.35;100.00;96637.25;5110767;28;20208;-55
2023/09/01 01:54:35;;;;;;;2.90;2.70;;;;;;;16.36;100.00;96630.91;5111059;28;20197;-56
2023/09/01 01:57:02;;;;;;;3.10;2.80;;;;;;;16.34;100.00;96638.25;5111874;28;20221;-56
2023/09/01 01:59:30;;;;;;;3.10;2.80;;;;;;;16.33;100.00;96631.28;5110519;28;20225;-56
2023/09/01 02:01:58;;;;;;;3.03;2.83;;;;;;;16.33;100.00;96631.28;5110398;28;20209;-55
2023/09/01 02:04:26;;;;;;;3.00;2.80;;;;;;;16.30;100.00;96626.28;5110829;28;20204;-55
2023/09/01 02:06:52;;;;;;;2.90;2.70;;;;;;;16.28;100.00;96633.66;5110703;28;20205;-56
2023/09/01 02:09:19;;;;;;;3.03;2.72;;;;;;;16.31;100.00;96635.94;5111116;28;20530;-56
2023/09/01 02:11:46;;;;;;;2.83;2.63;;;;;;;16.29;100.00;96636.16;5110687;28;20200;-55
2023/09/01 02:14:12;;;;;;;3.25;2.95;;;;;;;16.28;100.00;96638.97;5110768;28;20221;-55
2023/09/01 02:16:40;;;;;;;3.72;2.80;;;;;;;16.29;100.00;96644.16;5110584;28;20212;-56
2023/09/01 02:19:09;;;;;;;4.90;2.53;;;;;;;16.26;100.00;96652.50;5110901;28;20228;-55
2023/09/01 02:21:35;;;;;;;2.72;2.63;;;;;;;16.24;100.00;96649.19;5110783;28;20228;-54
2023/09/01 02:24:02;;;;;;;3.58;2.80;;;;;;;16.21;100.00;96646.03;5110374;28;20197;-55
2023/09/01 02:26:29;;;;;;;2.83;2.63;;;;;;;16.22;100.00;96647.72;5110755;28;20232;-59
2023/09/01 02:28:55;;;;;;;5.03;2.88;;;;;;;16.20;100.00;96647.88;5110780;28;20248;-56
2023/09/01 02:31:22;;;;;;;3.25;2.92;;;;;;;16.18;100.00;96643.72;5110139;28;20603;-56
2023/09/01 02:33:50;;;;;;;3.38;3.08;;;;;;;16.17;100.00;96640.22;5111033;28;20614;-56
2023/09/01 02:36:25;;;;;;;4.63;2.78;;;;;;;16.14;100.00;96631.75;5110217;28;20296;-55
2023/09/01 02:38:52;;;;;;;2.80;2.60;;;;;;;16.13;100.00;96624.75;5109907;28;20624;-56
2023/09/01 02:41:19;;;;;;;3.17;2.88;;;;;;;16.12;100.00;96628.44;5110465;28;20201;-57
2023/09/01 02:43:45;;;;;;;2.92;2.67;;;;;;;16.15;100.00;96623.59;5110899;28;20526;-56
2023/09/01 02:46:12;;;;;;;2.95;2.75;;;;;;;16.09;100.00;96613.59;5110194;28;20205;-56
2023/09/01 02:48:38;;;;;;;3.60;2.90;;;;;;;16.05;100.00;96617.63;5110460;28;20212;-57
2023/09/01 02:51:06;;;;;;;3.13;2.70;;;;;;;16.04;100.00;96620.50;5113256;28;20213;-57
2023/09/01 02:53:34;;;;;;;3.80;2.95;;;;;;;16.02;100.00;96623.31;5114352;28;20549;-55
2023/09/01 02:56:00;;;;;;;3.00;2.83;;;;;;;16.07;100.00;96628.97;5114738;28;20254;-56
2023/09/01 02:58:26;;;;;;;3.42;3.13;;;;;;;16.01;100.00;96626.19;5114026;28;20531;-55
2023/09/01 03:00:53;;;;;;;2.90;2.70;;;;;;;15.93;100.00;96630.56;5113884;28;20208;-56
2023/09/01 03:03:20;;;;;;;3.00;2.75;;;;;;;15.88;100.00;96632.91;5114599;28;20313;-55
2023/09/01 03:05:48;;;;;;;4.97;2.97;;;;;;;15.85;100.00;96635.09;5113302;28;20205;-57
2023/09/01 03:08:17;;;;;;;7.65;3.22;;;;;;;15.82;100.00;96628.28;5113827;28;20197;-56
2023/09/01 03:10:44;;;;;;;3.88;3.00;;;;;;;15.77;100.00;96630.66;5114220;28;20197;-55
2023/09/01 03:13:11;;;;;;;5.97;3.00;;;;;;;15.69;100.00;96627.22;5114208;28;20193;-57
2023/09/01 03:15:37;;;;;;;3.40;3.10;;;;;;;15.61;100.00;96625.41;5114238;28;20211;-56
2023/09/01 03:18:04;;;;;;;3.20;3.00;;;;;;;15.55;100.00;96620.78;5114525;28;20224;-56
2023/09/01 03:20:34;;;;;;;3.67;2.78;;;;;;;15.54;100.00;96619.13;5113616;28;20538;-56
2023/09/01 03:23:00;;;;;;;6.93;3.00;;;;;;;15.50;100.00;96623.13;5113816;28;20240;-54
2023/09/01 03:25:28;;;;;;;4.18;2.95;;;;;;;15.44;100.00;96613.94;5114242;28;20197;-56
2023/09/01 03:27:54;;;;;;;7.15;3.20;;;;;;;15.40;100.00;96612.66;5113204;28;20236;-57
2023/09/01 03:30:21;;;;;;;3.30;3.00;;;;;;;15.40;100.00;96612.66;5113516;28;20197;-57
2023/09/01 03:32:47;;;;;;;2.72;2.53;;;;;;;15.41;100.00;96616.13;5117582;28;20197;-57
2023/09/01 03:35:16;;;;;;;6.20;3.00;;;;;;;15.36;100.00;96611.34;5113346;28;20201;-56
2023/09/01 03:37:43;;;;;;;3.50;3.20;;;;;;;15.34;100.00;96617.81;5116314;28;20201;-55
2023/09/01 03:40:11;;;;;;;3.60;3.25;;;;;;;15.33;100.00;96619.69;5119830;28;20209;-54
2023/09/01 03:42:39;;;;;;;3.33;3.03;;;;;;;15.35;100.00;96615.00;5116342;28;20236;-55
2023/09/01 03:45:07;;;;;;;3.05;2.80;;;;;;;15.35;100.00;96608.84;5115551;28;20205;-54
2023/09/01 03:47:33;;;;;;;3.42;3.22;;;;;;;15.31;100.00;96600.34;5116251;28;20209;-57
2023/09/01 03:50:01;;;;;;;3.22;2.95;;;;;;;15.32;100.00;96603.84;5115544;28;20208;-55
2023/09/01 03:52:27;;;;;;;4.13;3.05;;;;;;;15.29;100.00;96607.72;5115356;28;20208;-55
2023/09/01 03:54:54;;;;;;;5.15;3.90;;;;;;;15.29;100.00;96610.38;5113244;28;20216;-55
2023/09/01 03:57:20;;;;;;;3.45;3.15;;;;;;;15.31;100.00;96612.84;5113622;28;20208;-55
2023/09/01 03:59:49;;;;;;;3.33;2.97;;;;;;;15.30;100.00;96600.56;5113677;28;20223;-55
2023/09/01 04:02:18;;;;;;;4.47;3.03;;;;;;;15.35;100.00;96608.84;5115976;28;20732;-54
2023/09/01 04:04:45;;;;;;;2.83;2.63;;;;;;;15.24;100.00;96609.22;5114377;28;20205;-56
2023/09/01 04:07:12;;;;;;;4.95;3.08;;;;;;;15.19;100.00;96615.06;5113815;28;20295;-56
2023/09/01 04:09:39;;;;;;;3.78;2.85;;;;;;;15.14;100.00;96609.41;5112965;28;20205;-57
2023/09/01 04:12:06;;;;;;;3.53;3.22;;;;;;;15.12;100.00;96618.59;5113019;28;20193;-57
2023/09/01 04:14:33;;;;;;;4.07;3.67;;;;;;;15.08;100.00;96606.63;5114198;28;20217;-55
2023/09/01 04:17:01;;;;;;;3.42;3.05;;;;;;;15.12;100.00;96613.28;5115048;28;20205;-55
2023/09/01 04:19:27;;;;;;;5.45;3.28;;;;;;;15.07;100.00;96616.44;5114368;28;20216;-56
2023/09/01 04:21:53;;;;;;;3.17;2.92;;;;;;;14.99;100.00;96612.97;5114339;28;20252;-56
2023/09/01 04:24:20;;;;;;;3.50;3.10;;;;;;;14.95;100.00;96615.13;5114143;28;20193;-56
2023/09/01 04:26:47;;;;;;;5.55;3.40;;;;;;;14.94;100.00;96616.16;5113472;28;20197;-57
2023/09/01 04:29:14;;;;;;;6.50;5.95;;;;;;;14.95;100.00;96623.13;5112795;28;20197;-56
2023/09/01 04:31:41;;;;;;;4.30;3.90;;;;;;;14.90;100.00;96620.16;5113400;28;20208;-56
2023/09/01 04:34:08;;;;;;;3.10;2.90;;;;;;;14.89;100.00;96624.66;5113157;28;20201;-56
2023/09/01 04:36:36;;;;;;;3.40;3.05;;;;;;;14.89;100.00;96618.47;5113426;28;20205;-56
2023/09/01 04:39:04;;;;;;;3.38;3.08;;;;;;;14.88;100.00;96625.63;5113465;28;20201;-57
2023/09/01 04:41:31;;;;;;;3.80;3.30;;;;;;;14.88;100.00;96620.31;5095729;28;20295;-57
2023/09/01 04:43:58;;;;;;;3.43;3.20;;;;;;;14.86;100.00;96630.31;5113618;28;20217;-56
2023/09/01 04:46:25;;;;;;;3.43;3.13;;;;;;;14.82;100.00;96634.31;5112748;28;20885;-55
2023/09/01 04:48:51;;;;;;;3.30;3.10;;;;;;;14.82;100.00;96634.31;5114452;28;20212;-56
2023/09/01 04:51:19;;;;;;;3.30;3.00;;;;;;;14.81;100.00;96621.16;5116208;28;20197;-56
2023/09/01 04:53:45;;;;;;;3.28;2.97;;;;;;;14.83;100.00;96621.84;5119009;28;20200;-57
2023/09/01 04:56:12;;;;;;;4.65;3.03;;;;;;;14.83;100.00;96620.00;5117572;28;20302;-55
2023/09/01 04:58:38;;;;;;;3.40;3.10;;;;;;;14.83;100.00;96625.34;5113996;28;20381;-55
2023/09/01 05:01:05;;;;;;;5.13;2.93;;;;;;;14.84;100.00;96616.31;5112347;28;20208;-56
2023/09/01 05:03:31;;;;;;;3.25;3.05;;;;;;;14.82;100.00;96621.00;5112179;28;20643;-56
2023/09/01 05:05:58;;;;;;;3.20;2.90;;;;;;;14.86;100.00;96619.66;5115713;28;20207;-55
2023/09/01 05:08:26;;;;;;;4.28;3.28;;;;;;;14.85;100.00;96628.66;5120062;28;20208;-56
2023/09/01 05:10:52;;;;;;;3.53;3.28;;;;;;;14.85;100.00;96628.66;5120482;28;20201;-56
2023/09/01 05:13:19;;;;;;;7.17;3.17;;;;;;;14.89;100.00;96629.13;5117783;28;20201;-57
2023/09/01 05:15:47;;;;;;;3.60;2.83;;;;;;;14.89;100.00;96629.97;5114142;28;20224;-57
2023/09/01 05:18:14;;;;;;;4.45;2.70;;;;;;;14.90;100.00;96626.31;5111014;28;20686;-56
2023/09/01 05:20:40;;;;;;;7.47;3.40;;;;;;;14.93;100.00;96625.13;5112064;28;20532;-56
2023/09/01 05:23:07;;;;;;;3.50;3.03;;;;;;;14.98;100.00;96624.63;5111983;28;20217;-56
2023/09/01 05:25:35;;;;;;;3.72;3.42;;;;;;;14.99;100.00;96621.78;5112010;28;20208;-55
2023/09/01 05:28:01;;;;;;;4.13;3.17;;;;;;;15.02;100.00;96628.63;5111814;28;20240;-55
2023/09/01 05:30:28;;;;;;;3.80;3.50;;;;;;;15.05;100.00;96629.09;5112652;28;20197;-55
2023/09/01 05:32:54;;;;;;;3.60;3.10;;;;;;;15.10;100.00;96636.56;5112298;28;20216;-55
2023/09/01 05:35:20;;;;;;;3.45;3.15;;;;;;;15.12;100.00;96631.91;5111358;28;20846;-56
2023/09/01 05:37:47;;;;;;;7.10;3.17;;;;;;;15.15;100.00;96636.91;5112129;28;20557;-54
2023/09/01 05:40:13;;;;;;;3.60;3.25;;;;;;;15.18;100.00;96639.22;5111714;28;20213;-55
2023/09/01 05:42:41;;;;;;;5.03;3.25;;;;;;;15.20;100.00;96643.34;5111982;28;20221;-57
2023/09/01 05:45:08;;;;;;;6.45;4.00;;;;;;;15.22;100.00;96651.19;5111924;28;20220;-56
2023/09/01 05:47:36;;;;;;;5.20;4.15;;;;;;;15.25;100.00;96640.19;5112010;28;20193;-57
2023/09/01 05:50:03;;;;;;;3.40;3.10;;;;;;;15.29;100.00;96647.66;5111700;28;20212;-56
2023/09/01 05:52:30;;;;;;;8.77;5.15;;;;;;;15.34;100.00;96641.81;5112496;28;20200;-56
2023/09/01 05:54:56;;;;;;;6.15;4.20;;;;;;;15.38;100.00;96640.47;5112661;28;20284;-55
2023/09/01 05:57:23;;;;;;;5.07;4.25;;;;;;;15.46;100.00;96648.44;5113172;28;20201;-56
2023/09/01 05:59:51;;;;;;;7.72;6.43;;;;;;;15.54;100.00;96652.94;5112502;28;20204;-56
2023/09/01 06:02:18;;;;;;;9.73;8.63;;;;;;;15.62;100.00;96648.41;5113475;28;20288;-55
2023/09/01 06:04:44;;;;;;;8.77;6.57;;;;;;;15.69;100.00;96654.69;5112268;28;20199;-56
2023/09/01 06:07:11;;;;;;;4.65;4.22;;;;;;;15.81;100.00;96658.63;5113429;28;20201;-56
2023/09/01 06:09:37;;;;;;;6.85;4.20;;;;;;;15.99;100.00;96665.53;5112458;28;20201;-55
2023/09/01 06:12:06;;;;;;;4.97;4.40;;;;;;;16.17;100.00;96668.75;5111675;28;20208;-55
2023/09/01 06:14:32;;;;;;;4.97;4.20;;;;;;;16.28;100.00;96673.69;5111575;28;20201;-55
2023/09/01 06:17:00;;;;;;;4.28;3.92;;;;;;;16.39;100.00;96678.59;5112617;28;20204;-56
2023/09/01 06:19:27;;;;;;;3.75;3.42;;;;;;;16.46;100.00;96671.53;5112026;28;20196;-56
2023/09/01 06:21:53;;;;;;;4.43;4.03;;;;;;;16.50;100.00;96680.03;5112189;28;20205;-56
2023/09/01 06:24:19;;;;;;;4.13;3.58;;;;;;;16.52;100.00;96684.16;5113398;28;20247;-55
2023/09/01 06:26:46;;;;;;;5.25;3.90;;;;;;;16.47;100.00;96675.03;5116661;28;20208;-56
2023/09/01 06:29:13;;;;;;;4.05;3.75;;;;;;;16.48;100.00;96688.19;5097870;28;20239;-57
2023/09/01 06:31:39;;;;;;;5.93;4.20;;;;;;;16.54;100.00;96687.50;5117883;28;20247;-55
2023/09/01 06:34:07;;;;;;;6.07;4.00;;;;;;;16.63;100.00;96686.44;5119050;28;20548;-56
2023/09/01 06:36:34;;;;;;;4.97;4.07;;;;;;;16.84;100.00;96686.59;5117783;28;20937;-56
2023/09/01 06:39:00;;;;;;;5.03;4.32;;;;;;;17.22;100.00;96695.41;5119894;28;21364;-55
2023/09/01 06:41:27;;;;;;;5.93;4.20;;;;;;;17.59;100.00;96686.50;5120682;28;20205;-57
2023/09/01 06:43:53;;;;;;;5.00;4.32;;;;;;;18.05;100.00;96688.94;5119668;28;20282;-57
2023/09/01 06:46:20;;;;;;;4.20;3.88;;;;;;;18.46;100.00;96697.22;5120625;28;20197;-57
2023/09/01 06:48:48;;;;;;;4.35;3.83;;;;;;;18.97;100.00;96688.03;5121080;28;20850;-57
2023/09/01 06:51:16;;;;;;;4.53;3.78;;;;;;;19.30;100.00;96697.16;5119090;28;20230;-56
2023/09/01 06:53:42;;;;;;;4.57;3.75;;;;;;;19.32;100.00;96699.63;5115336;28;20229;-57
2023/09/01 06:56:09;;;;;;;4.60;4.00;;;;;;;19.17;100.00;96697.03;5115774;28;20205;-57
2023/09/01 06:58:36;;;;;;;3.92;3.63;;;;;;;18.90;100.00;96689.81;5115074;28;20197;-56
2023/09/01 07:01:07;;;;;;;5.18;3.92;;;;;;;18.75;100.00;96692.56;5114934;28;20209;-56
2023/09/01 07:03:34;;;;;;;3.83;3.53;;;;;;;18.59;100.00;96703.56;5116804;28;20244;-56
2023/09/01 07:06:00;;;;;;;4.30;3.90;;;;;;;18.52;100.00;96697.31;5118569;28;20300;-58
2023/09/01 07:08:29;;;;;;;3.85;3.53;;;;;;;19.09;100.00;96694.53;5114239;28;20209;-55
2023/09/01 07:11:00;;;;;;;4.47;4.05;;;;;;;19.68;100.00;96699.47;5115667;28;20197;-56
2023/09/01 07:13:27;;;;;;;4.75;4.22;;;;;;;20.06;100.00;96707.88;5114505;28;20286;-55
2023/09/01 07:15:53;;;;;;;4.85;3.90;;;;;;;20.44;100.00;96703.69;5113901;28;20664;-55
2023/09/01 07:18:21;;;;;;;4.25;3.85;;;;;;;20.94;94.96;96704.22;5114022;28;20216;-56
2023/09/01 07:20:48;;;;;;;3.88;3.53;;;;;;;21.27;96.33;96702.38;5113638;28;20212;-56
2023/09/01 07:23:15;;;;;;;4.25;3.72;;;;;;;21.43;90.56;96693.88;5114824;28;20235;-57
2023/09/01 07:25:44;;;;;;;3.70;3.40;;;;;;;21.65;87.95;96699.81;5114791;28;20562;-56
2023/09/01 07:28:11;;;;;;;3.83;3.50;;;;;;;21.59;88.66;96692.59;5113935;28;20233;-55
2023/09/01 07:30:37;;;;;;;5.60;3.22;;;;;;;21.72;89.38;96695.25;5114396;28;20197;-56
2023/09/01 07:33:04;;;;;;;4.60;3.22;;;;;;;22.03;84.61;96699.97;5114188;28;20527;-56
2023/09/01 07:35:31;;;;;;;6.75;3.55;;;;;;;22.17;85.81;96698.84;5113305;28;20208;-57
2023/09/01 07:37:58;;;;;;;4.00;3.70;;;;;;;22.02;86.73;96701.00;5112607;28;20208;-56
2023/09/01 07:40:24;;;;;;;3.83;3.53;;;;;;;22.15;84.74;96703.63;5112986;28;20649;-56
2023/09/01 07:42:52;;;;;;;3.83;3.42;;;;;;;22.12;85.73;96701.34;5113582;28;20205;-57
2023/09/01 07:45:19;;;;;;;3.58;3.10;;;;;;;22.30;80.12;96699.63;5113873;28;20197;-55
2023/09/01 07:47:45;;;;;;;3.70;2.83;;;;;;;22.40;83.97;96698.31;5113389;28;20538;-56
2023/09/01 07:50:12;;;;;;;3.50;3.20;;;;;;;22.44;82.48;96694.16;5113680;28;20219;-54
2023/09/01 07:52:38;;;;;;;4.95;3.25;;;;;;;22.35;82.55;96701.69;5113095;28;20209;-55
2023/09/01 07:55:05;;;;;;;3.20;3.00;;;;;;;22.19;84.65;96704.84;5113808;28;20193;-55
2023/09/01 07:57:32;;;;;;;3.13;2.80;;;;;;;22.26;86.64;96709.16;5113438;28;20253;-55
2023/09/01 08:00:00;;;;;;;3.10;2.90;;;;;;;22.19;84.13;96704.84;5113652;28;20197;-55
2023/09/01 08:02:26;;;;;;;2.80;2.60;;;;;;;22.17;82.10;96715.03;5112979;28;20637;-55
2023/09/01 08:04:53;;;;;;;3.28;2.67;;;;;;;22.21;84.97;96697.41;5112199;28;20947;-56
2023/09/01 08:07:20;;;;;;;2.92;2.72;;;;;;;22.09;85.21;96705.31;5113751;28;20205;-55
2023/09/01 08:09:46;;;;;;;3.47;2.92;;;;;;;22.08;82.18;96706.34;5112709;28;20220;-56
2023/09/01 08:12:12;;;;;;;3.10;2.80;;;;;;;22.06;80.96;96708.44;5113504;28;20212;-56
2023/09/01 08:14:39;;;;;;;3.53;2.85;;;;;;;22.17;84.59;96705.09;5112906;28;20216;-57
2023/09/01 08:17:07;;;;;;;2.40;2.20;;;;;;;22.03;84.79;96705.34;5113592;28;20189;-55
2023/09/01 08:19:33;;;;;;;3.08;2.70;;;;;;;21.79;86.75;96707.66;5112381;28;20228;-56
2023/09/01 08:22:01;;;;;;;4.63;2.55;;;;;;;21.65;91.72;96706.03;5112742;28;20201;-56
2023/09/01 08:24:28;;;;;;;3.67;3.00;;;;;;;21.49;97.37;96708.34;5112723;28;20221;-56
2023/09/01 08:26:54;;;;;;;2.78;2.53;;;;;;;21.44;86.69;96710.81;5113058;28;20596;-56
2023/09/01 08:29:21;;;;;;;3.40;2.47;;;;;;;21.42;92.89;96719.13;5113214;28;20538;-55
2023/09/01 08:31:47;;;;;;;2.85;2.63;;;;;;;21.52;91.86;96713.31;5112704;28;20606;-56
2023/09/01 08:34:15;;;;;;;2.95;2.40;;;;;;;21.51;87.28;96714.34;5112853;28;20211;-57
2023/09/01 08:36:43;;;;;;;2.92;1.88;;;;;;;21.66;86.40;96706.84;5112332;28;20231;-56
2023/09/01 08:39:09;;;;;;;2.65;2.45;;;;;;;21.75;87.75;96709.09;5112843;28;20211;-55
2023/09/01 08:41:36;;;;;;;2.10;1.90;;;;;;;21.97;91.33;96706.16;5113067;28;20205;-57
2023/09/01 08:44:06;;;;;;;3.72;2.30;;;;;;;22.11;82.59;96718.53;5112990;28;20233;-57
2023/09/01 08:46:33;;;;;;;2.15;2.03;;;;;;;22.34;80.52;96716.19;5113050;28;20244;-56
2023/09/01 08:48:59;;;;;;;2.55;2.20;;;;;;;22.59;79.30;96714.41;5113830;28;20502;-55
2023/09/01 08:51:27;;;;;;;2.63;2.15;;;;;;;23.08;77.79;96704.75;5113658;28;20201;-55
2023/09/01 08:53:54;;;;;;;2.88;2.10;;;;;;;23.29;80.47;96699.78;5113594;28;20224;-56
2023/09/01 08:56:20;;;;;;;3.63;2.00;;;;;;;23.63;77.66;96701.16;5112974;28;20205;-55
2023/09/01 08:58:47;;;;;;;2.33;2.13;;;;;;;23.84;70.39;96704.47;5112949;28;20517;-57
2023/09/01 09:01:15;;;;;;;2.95;2.08;;;;;;;24.09;74.37;96699.84;5112920;28;20212;-56
2023/09/01 09:03:42;;;;;;;1.95;1.77;;;;;;;24.45;67.20;96704.38;5112294;28;20225;-56
2023/09/01 09:06:13;;;;;;;2.25;1.90;;;;;;;24.47;63.68;96695.00;5111586;28;20201;-55
2023/09/01 09:08:41;;;;;;;2.03;1.70;;;;;;;24.50;64.60;96702.66;5112533;28;20197;-56
2023/09/01 09:11:12;;;;;;;1.77;1.67;;;;;;;24.66;66.59;96699.28;5112162;28;20842;-55
2023/09/01 09:13:39;;;;;;;3.00;2.17;;;;;;;24.99;67.34;96701.53;5112571;28;20193;-56
2023/09/01 09:16:10;;;;;;;2.08;1.70;;;;;;;25.19;64.76;96693.09;5112529;28;20193;-56
2023/09/01 09:18:37;;;;;;;7.45;2.10;;;;;;;25.51;67.24;96694.44;5116764;28;20220;-55
2023/09/01 09:21:04;;;;;;;3.20;2.05;;;;;;;25.94;68.25;96693.22;5118684;28;20197;-57
2023/09/01 09:23:45;;;;;;;3.42;2.10;;;;;;;26.24;59.02;96693.91;5118256;28;20201;-56
2023/09/01 09:26:11;;;;;;;2.72;1.73;;;;;;;26.19;58.48;96685.66;5113437;28;20200;-56
2023/09/01 09:28:38;;;;;;;1.95;1.85;;;;;;;26.56;61.94;96689.66;5112008;28;20347;-56
2023/09/01 09:31:05;;;;;;;2.95;1.88;;;;;;;26.17;56.34;96682.34;5111178;28;20205;-56
2023/09/01 09:33:33;;;;;;;4.80;1.95;;;;;;;26.46;56.46;96686.75;5112185;28;20262;-58
2023/09/01 09:36:00;;;;;;;2.80;2.30;;;;;;;26.21;58.18;96688.97;5111397;28;20197;-56
2023/09/01 09:38:39;;;;;;;2.90;2.13;;;;;;;26.19;60.50;96688.38;5111834;28;20216;-56
2023/09/01 09:41:07;;;;;;;2.60;2.08;;;;;;;26.41;58.17;96683.94;5111308;28;20640;-56
2023/09/01 09:43:44;;;;;;;4.25;1.80;;;;;;;26.68;58.73;96685.00;5112093;28;20212;-56
2023/09/01 09:46:10;;;;;;;2.13;1.88;;;;;;;26.86;57.11;96680.44;5111794;28;20205;-55
2023/09/01 09:48:38;;;;;;;2.28;2.08;;;;;;;26.86;55.07;96688.59;5112271;28;20201;-56
2023/09/01 09:51:07;;;;;;;2.60;2.10;;;;;;;26.90;54.14;96693.28;5111050;28;20205;-57
2023/09/01 09:53:35;;;;;;;1.95;1.85;;;;;;;26.95;58.15;96684.44;5111748;28;20209;-57
2023/09/01 09:56:24;;;;;;;1.92;1.70;;;;;;;26.87;55.87;96682.09;5111339;28;20225;-56
2023/09/01 09:58:51;;;;;;;2.15;2.05;;;;;;;26.99;56.30;96688.31;5111171;28;20197;-58
2023/09/01 10:01:19;;;;;;;2.35;2.08;;;;;;;27.01;59.55;96688.88;5111545;28;20216;-56
2023/09/01 10:03:47;;;;;;;3.30;1.77;;;;;;;27.18;55.74;96678.84;5111685;28;20216;-57
2023/09/01 10:06:16;;;;;;;2.60;2.13;;;;;;;27.23;56.23;96676.22;5111336;28;20213;-56
2023/09/01 10:08:43;;;;;;;2.72;2.47;;;;;;;27.39;57.85;96675.38;5111494;28;20201;-57
2023/09/01 10:11:10;;;;;;;2.03;1.75;;;;;;;27.76;54.91;96664.81;5111423;28;20228;-56
2023/09/01 10:13:39;;;;;;;2.03;1.77;;;;;;;28.09;56.04;96674.81;5111136;28;20554;-55
2023/09/01 10:16:06;;;;;;;2.08;1.85;;;;;;;28.22;53.59;96663.53;5110556;28;20297;-56
2023/09/01 10:18:34;;;;;;;2.03;1.45;;;;;;;28.25;56.31;96667.66;5111360;28;20201;-57
2023/09/01 10:21:01;;;;;;;4.28;2.20;;;;;;;28.04;52.60;96661.94;5115231;28;20514;-56
2023/09/01 10:23:27;;;;;;;1.95;1.85;;;;;;;28.30;53.79;96652.22;5118705;28;20727;-57
2023/09/01 10:26:14;;;;;;;2.28;1.80;;;;;;;28.11;52.86;96662.59;5120009;28;20261;-55
2023/09/01 10:28:55;;;;;;;2.28;1.92;;;;;;;27.96;51.28;96654.22;5121132;28;20718;-57
2023/09/01 10:31:23;;;;;;;2.15;1.95;;;;;;;27.87;52.45;96638.59;5112563;28;20201;-57
2023/09/01 10:34:03;;;;;;;2.30;1.98;;;;;;;27.56;53.33;96637.38;5111780;28;20243;-56
2023/09/01 10:36:30;;;;;;;2.17;1.70;;;;;;;27.65;56.40;96644.84;5111213;28;20197;-56
2023/09/01 10:39:03;;;;;;;2.60;2.13;;;;;;;27.63;56.56;96638.00;5111303;28;20212;-56
2023/09/01 10:41:45;;;;;;;4.30;2.35;;;;;;;27.60;56.37;96633.88;5111294;28;20216;-56
2023/09/01 10:44:13;;;;;;;2.05;1.85;;;;;;;27.91;56.70;96628.88;5110822;28;20235;-57
2023/09/01 10:46:39;;;;;;;1.92;1.83;;;;;;;28.18;53.03;96632.50;5111060;28;20221;-56
2023/09/01 10:49:07;;;;;;;2.33;2.13;;;;;;;28.14;55.26;96629.47;5111017;28;20202;-56
2023/09/01 10:51:37;;;;;;;2.15;1.73;;;;;;;28.37;55.25;96633.81;5110867;28;20205;-58
2023/09/01 10:54:39;;;;;;;6.07;1.70;;;;;;;28.34;54.20;96634.28;5110860;28;20300;-54
2023/09/01 10:57:11;;;;;;;1.63;1.50;;;;;;;28.19;53.37;96628.72;5111283;28;20205;-56
2023/09/01 10:59:40;;;;;;;1.98;1.83;;;;;;;28.20;50.50;96630.31;5110813;28;20663;-55
2023/09/01 11:02:18;;;;;;;1.90;1.65;;;;;;;28.00;52.16;96630.06;5110911;28;20628;-56
2023/09/01 11:04:44;;;;;;;1.90;1.77;;;;;;;28.21;54.90;96621.09;5111334;28;20213;-57
2023/09/01 11:07:12;;;;;;;1.73;1.60;;;;;;;28.47;54.58;96625.75;5111425;28;20216;-57
2023/09/01 11:09:48;;;;;;;1.55;1.35;;;;;;;28.69;52.82;96619.47;5110428;28;20284;-56
2023/09/01 11:12:14;;;;;;;1.80;1.70;;;;;;;28.67;48.65;96628.69;5112961;28;20236;-56
2023/09/01 11:14:56;;;;;;;2.25;1.85;;;;;;;28.86;49.18;96625.59;5113746;28;20549;-56
2023/09/01 11:17:37;;;;;;;2.47;2.03;;;;;;;28.64;49.46;96612.84;5114862;28;20290;-56
2023/09/01 11:20:05;;;;;;;2.05;1.55;;;;;;;28.42;50.50;96614.81;5114196;28;20215;-56
2023/09/01 11:22:31;;;;;;;3.20;1.88;;;;;;;28.17;51.84;96600.94;5114079;28;20682;-56
2023/09/01 11:24:58;;;;;;;1.92;1.67;;;;;;;28.12;53.12;96598.16;5114652;28;20229;-56
2023/09/01 11:27:24;;;;;;;1.75;1.40;;;;;;;28.21;52.51;96603.97;5114519;28;20237;-56
2023/09/01 11:29:56;;;;;;;2.83;1.70;;;;;;;28.34;53.95;96606.31;5114541;28;20921;-55
2023/09/01 11:32:29;;;;;;;1.92;1.70;;;;;;;28.40;54.11;96599.81;5115684;28;20258;-56